createdAt,value
2023-05-09T00:02:01.499Z,65.59
2023-05-09T00:04:33.455Z,67.74
2023-05-09T00:07:01.526Z,69.59
2023-05-09T00:09:29.279Z,69.05
2023-05-09T00:11:57.509Z,68.92
2023-05-09T00:14:25.906Z,67.28
2023-05-09T00:16:53.998Z,66.02
2023-05-09T00:19:22.177Z,67.35
2023-05-09T00:21:49.979Z,70.05
2023-05-09T00:24:17.749Z,71.44
2023-05-09T00:26:45.857Z,68.48
2023-05-09T00:29:13.571Z,71.56
2023-05-09T00:31:41.294Z,72.58
2023-05-09T00:34:09.857Z,74.47
2023-05-09T00:36:37.614Z,74.99
2023-05-09T00:39:05.818Z,75.49
2023-05-09T00:41:40.849Z,74.08
2023-05-09T00:44:08.796Z,75.02
2023-05-09T00:46:36.643Z,75.33
2023-05-09T00:49:04.900Z,75.05
2023-05-09T00:51:32.998Z,74.51
2023-05-09T00:54:00.909Z,74.51
2023-05-09T00:56:29.024Z,73.32
2023-05-09T00:58:57.576Z,74.87
2023-05-09T01:01:25.389Z,73.37
2023-05-09T01:03:54.282Z,70.23
2023-05-09T01:06:41.970Z,74.34
2023-05-09T01:09:10.274Z,73.40
2023-05-09T01:11:53.023Z,73.29
2023-05-09T01:14:32.420Z,74.48
2023-05-09T01:17:02.193Z,73.69
2023-05-09T01:19:51.253Z,76.66
2023-05-09T01:22:21.550Z,78.41
2023-05-09T01:25:13.714Z,80.08
2023-05-09T01:27:59.440Z,79.75
2023-05-09T01:30:28.295Z,81.27
2023-05-09T01:32:58.348Z,80.17
2023-05-09T01:35:30.528Z,79.97
2023-05-09T01:37:58.655Z,77.43
2023-05-09T01:40:26.568Z,75.53
2023-05-09T01:42:58.522Z,81.00
2023-05-09T01:45:26.614Z,81.39
2023-05-09T01:47:54.574Z,78.79
2023-05-09T01:50:22.382Z,76.56
2023-05-09T01:52:51.282Z,78.15
2023-05-09T01:55:20.178Z,74.92
2023-05-09T01:57:47.970Z,74.93
2023-05-09T02:00:18.539Z,80.85
2023-05-09T02:02:46.598Z,82.47
2023-05-09T02:05:14.972Z,82.20
2023-05-09T02:07:42.821Z,84.46
2023-05-09T02:10:11.669Z,83.80
2023-05-09T02:12:39.527Z,82.58
2023-05-09T02:15:09.420Z,81.85
2023-05-09T02:18:01.189Z,83.71
2023-05-09T02:20:29.146Z,82.50
2023-05-09T02:22:57.150Z,79.91
2023-05-09T02:25:24.849Z,82.49
2023-05-09T02:27:52.599Z,80.83
2023-05-09T02:30:25.398Z,82.78
2023-05-09T02:33:12.325Z,80.97
2023-05-09T02:36:01.928Z,78.12
2023-05-09T02:38:29.794Z,78.94
2023-05-09T02:40:58.229Z,81.12
2023-05-09T02:43:28.698Z,81.43
2023-05-09T02:45:56.449Z,81.78
2023-05-09T02:48:25.583Z,77.38
2023-05-09T02:50:53.347Z,82.15
2023-05-09T02:53:21.079Z,80.04
2023-05-09T02:55:49.748Z,84.16
2023-05-09T02:58:22.850Z,81.82
2023-05-09T03:00:51.288Z,80.80
2023-05-09T03:03:22.400Z,81.84
2023-05-09T03:05:51.888Z,80.16
2023-05-09T03:08:19.621Z,82.44
2023-05-09T03:10:47.926Z,82.00
2023-05-09T03:13:17.669Z,82.43
2023-05-09T03:15:45.621Z,83.35
2023-05-09T03:18:13.433Z,80.98
2023-05-09T03:20:41.478Z,83.05
2023-05-09T03:23:18.932Z,79.67
2023-05-09T03:25:47.970Z,80.72
2023-05-09T03:28:17.782Z,81.95
2023-05-09T03:30:45.505Z,81.88
2023-05-09T03:33:14.201Z,85.25
2023-05-09T03:35:42.571Z,82.56
2023-05-09T03:38:28.914Z,84.10
2023-05-09T03:40:57.304Z,79.73
2023-05-09T03:43:27.760Z,80.07
2023-05-09T03:45:55.669Z,82.99
2023-05-09T03:48:45.610Z,82.05
2023-05-09T03:51:38.853Z,81.37
2023-05-09T03:54:09.359Z,80.41
2023-05-09T03:56:38.157Z,81.67
2023-05-09T03:59:05.955Z,84.22
2023-05-09T04:01:35.078Z,81.90
2023-05-09T04:04:03.612Z,82.71
2023-05-09T04:06:36.210Z,79.67
2023-05-09T04:09:05.113Z,80.44
2023-05-09T04:11:33.335Z,79.07
2023-05-09T04:14:15.714Z,77.24
2023-05-09T04:16:43.679Z,76.62
2023-05-09T04:19:11.508Z,73.03
2023-05-09T04:21:39.662Z,71.54
2023-05-09T04:24:17.214Z,70.44
2023-05-09T04:26:46.416Z,63.93
2023-05-09T04:29:14.265Z,62.52
2023-05-09T04:31:42.209Z,60.84
2023-05-09T04:34:11.786Z,59.38
2023-05-09T04:36:39.878Z,58.34
2023-05-09T04:39:08.466Z,57.67
2023-05-09T04:41:37.687Z,54.63
2023-05-09T04:44:05.634Z,53.84
2023-05-09T04:46:33.490Z,52.78
2023-05-09T04:49:02.342Z,55.14
2023-05-09T04:51:30.206Z,52.58
2023-05-09T04:54:07.505Z,51.02
2023-05-09T04:56:36.684Z,51.52
2023-05-09T04:59:04.656Z,50.95
2023-05-09T05:01:41.777Z,47.86
2023-05-09T05:04:10.348Z,48.23
2023-05-09T05:06:39.124Z,48.67
2023-05-09T05:09:07.213Z,49.50
2023-05-09T05:11:36.193Z,49.16
2023-05-09T05:14:05.335Z,49.97
2023-05-09T05:16:35.150Z,48.67
2023-05-09T05:19:03.995Z,49.69
2023-05-09T05:21:33.062Z,50.00
2023-05-09T05:24:01.343Z,48.22
2023-05-09T05:26:31.568Z,47.48
2023-05-09T05:28:59.623Z,50.46
2023-05-09T05:31:28.727Z,49.98
2023-05-09T05:33:59.923Z,48.89
2023-05-09T05:36:30.342Z,46.50
2023-05-09T05:38:58.928Z,44.72
2023-05-09T05:41:27.391Z,45.66
2023-05-09T05:43:55.798Z,42.87
2023-05-09T05:46:31.769Z,43.64
2023-05-09T05:48:59.803Z,42.34
2023-05-09T05:51:29.160Z,42.12
2023-05-09T05:53:57.161Z,41.98
2023-05-09T05:59:16.518Z,42.81
2023-05-09T06:01:44.293Z,40.89
2023-05-09T06:04:17.357Z,40.75
2023-05-09T06:06:55.713Z,41.21
2023-05-09T06:09:23.844Z,40.62
2023-05-09T06:11:51.558Z,40.66
2023-05-09T06:14:21.878Z,40.25
2023-05-09T06:16:50.593Z,40.60
2023-05-09T06:19:21.732Z,39.54
2023-05-09T06:21:49.546Z,40.16
2023-05-09T06:24:28.005Z,40.90
2023-05-09T06:27:02.876Z,40.06
2023-05-09T06:29:31.174Z,40.03
2023-05-09T06:31:59.222Z,39.26
2023-05-09T06:34:29.166Z,38.80
2023-05-09T06:36:57.231Z,38.64
2023-05-09T06:39:25.102Z,40.40
2023-05-09T06:41:52.849Z,40.87
2023-05-09T06:44:21.560Z,39.61
2023-05-09T06:46:49.345Z,38.36
2023-05-09T06:49:18.129Z,38.22
2023-05-09T06:51:46.421Z,37.88
2023-05-09T06:54:14.161Z,36.80
2023-05-09T06:56:41.884Z,40.51
2023-05-09T06:59:16.874Z,38.60
2023-05-09T07:01:44.671Z,38.20
2023-05-09T07:04:12.523Z,40.01
2023-05-09T07:06:40.693Z,36.38
2023-05-09T07:09:09.140Z,38.01
2023-05-09T07:11:37.191Z,37.30
2023-05-09T07:14:05.412Z,38.89
2023-05-09T07:16:35.180Z,38.18
2023-05-09T07:19:04.451Z,37.15
2023-05-09T07:21:34.678Z,36.18
2023-05-09T07:24:02.767Z,36.06
2023-05-09T07:26:30.676Z,35.83
2023-05-09T07:28:58.744Z,34.33
2023-05-09T07:31:26.616Z,36.49
2023-05-09T07:33:54.754Z,35.57
2023-05-09T07:36:22.881Z,33.86
2023-05-09T07:38:52.971Z,33.28
2023-05-09T07:41:20.965Z,34.42
2023-05-09T07:43:49.120Z,34.76
2023-05-09T07:46:17.046Z,33.95
2023-05-09T07:48:44.940Z,32.06
2023-05-09T07:51:13.108Z,32.85
2023-05-09T07:53:42.158Z,34.84
2023-05-09T07:56:09.954Z,33.59
2023-05-09T07:58:38.197Z,34.38
2023-05-09T08:01:06.028Z,34.68
2023-05-09T08:03:34.374Z,33.14
2023-05-09T08:06:02.237Z,33.84
2023-05-09T08:08:30.054Z,34.27
2023-05-09T08:10:58.297Z,36.05
2023-05-09T08:13:26.300Z,31.45
2023-05-09T08:15:54.168Z,32.48
2023-05-09T08:18:23.523Z,34.14
2023-05-09T08:20:51.390Z,31.93
2023-05-09T08:23:19.180Z,34.26
2023-05-09T08:25:47.413Z,34.46
2023-05-09T08:28:15.951Z,32.27
2023-05-09T08:30:43.604Z,32.32
2023-05-09T08:33:11.823Z,32.13
2023-05-09T08:35:39.631Z,31.97
2023-05-09T08:38:07.347Z,31.88
2023-05-09T08:40:38.652Z,32.02
2023-05-09T08:43:06.815Z,32.03
2023-05-09T08:45:43.507Z,31.08
2023-05-09T08:48:11.983Z,33.16
2023-05-09T08:50:40.542Z,31.58
2023-05-09T08:53:08.303Z,28.74
2023-05-09T08:55:36.382Z,30.10
2023-05-09T08:58:04.497Z,29.82
2023-05-09T09:00:32.780Z,30.21
2023-05-09T09:03:03.567Z,29.49
2023-05-09T09:05:41.159Z,29.91
2023-05-09T09:08:12.107Z,28.66
2023-05-09T09:10:41.432Z,29.40
2023-05-09T09:13:09.809Z,30.07
2023-05-09T09:15:38.053Z,31.03
2023-05-09T09:18:10.006Z,34.24
2023-05-09T09:20:46.085Z,30.02
2023-05-09T09:23:13.873Z,32.98
2023-05-09T09:25:42.027Z,31.05
2023-05-09T09:28:09.723Z,28.68
2023-05-09T09:30:43.696Z,28.36
2023-05-09T09:33:17.235Z,27.99
2023-05-09T09:35:44.965Z,28.07
2023-05-09T09:38:13.063Z,28.76
2023-05-09T09:40:41.012Z,28.04
2023-05-09T09:43:09.848Z,29.94
2023-05-09T09:45:38.605Z,27.42
2023-05-09T09:48:06.714Z,27.16
2023-05-09T09:50:34.512Z,27.07
2023-05-09T09:53:03.839Z,28.67
2023-05-09T09:55:34.533Z,30.07
2023-05-09T09:58:02.692Z,26.39
2023-05-09T10:00:32.382Z,26.87
2023-05-09T10:03:01.232Z,31.54
2023-05-09T10:05:30.103Z,25.60
2023-05-09T10:08:01.931Z,25.19
2023-05-09T10:10:34.002Z,27.19
2023-05-09T10:13:06.530Z,24.39
2023-05-09T10:15:49.377Z,24.68
2023-05-09T10:18:22.736Z,25.22
2023-05-09T10:20:53.935Z,25.12
2023-05-09T10:23:21.588Z,25.66
2023-05-09T10:25:52.805Z,27.23
2023-05-09T10:28:23.203Z,26.74
2023-05-09T10:30:58.587Z,25.24
2023-05-09T10:33:31.465Z,25.30
2023-05-09T10:35:59.438Z,27.04
2023-05-09T10:38:27.720Z,25.78
2023-05-09T10:40:55.469Z,29.27
2023-05-09T10:43:25.322Z,26.09
2023-05-09T10:45:55.738Z,25.87
2023-05-09T10:48:24.444Z,25.08
2023-05-09T10:50:53.529Z,26.10
2023-05-09T10:53:24.521Z,26.08
2023-05-09T10:55:57.739Z,25.74
2023-05-09T10:58:25.757Z,26.00
2023-05-09T11:00:57.348Z,25.61
2023-05-09T11:03:29.005Z,24.28
2023-05-09T11:05:57.837Z,28.13
2023-05-09T11:08:26.579Z,25.93
2023-05-09T11:10:54.960Z,27.61
2023-05-09T11:13:24.276Z,26.51
2023-05-09T11:16:11.715Z,27.33
2023-05-09T11:18:52.634Z,25.59
2023-05-09T11:21:20.829Z,26.51
2023-05-09T11:23:49.411Z,26.45
2023-05-09T11:26:17.556Z,27.58
2023-05-09T11:28:52.173Z,28.77
2023-05-09T11:31:20.853Z,27.39
2023-05-09T11:33:55.226Z,29.68
2023-05-09T11:36:30.328Z,29.52
2023-05-09T11:39:02.791Z,31.57
2023-05-09T11:41:31.500Z,26.83
2023-05-09T11:44:00.484Z,25.87
2023-05-09T11:46:28.284Z,26.92
2023-05-09T11:49:09.584Z,28.63
2023-05-09T11:51:39.239Z,27.01
2023-05-09T11:54:07.553Z,28.40
2023-05-09T11:56:36.426Z,28.42
2023-05-09T11:59:04.309Z,28.18
2023-05-09T12:01:32.088Z,27.63
2023-05-09T12:04:00.618Z,29.89
2023-05-09T12:06:30.205Z,29.97
2023-05-09T12:08:58.165Z,30.76
2023-05-09T12:11:26.420Z,31.25
2023-05-09T12:13:54.577Z,31.79
2023-05-09T12:16:22.474Z,30.15
2023-05-09T12:18:51.819Z,31.85
2023-05-09T12:21:19.822Z,29.61
2023-05-09T12:23:50.567Z,29.58
2023-05-09T12:26:19.796Z,33.64
2023-05-09T12:28:47.574Z,30.81
2023-05-09T12:31:15.349Z,28.31
2023-05-09T12:33:43.501Z,29.52
2023-05-09T12:36:11.622Z,29.09
2023-05-09T12:38:39.828Z,29.48
2023-05-09T12:41:15.463Z,30.54
2023-05-09T12:43:50.356Z,30.52
2023-05-09T12:46:19.123Z,29.92
2023-05-09T12:48:48.497Z,29.93
2023-05-09T12:51:20.752Z,27.30
2023-05-09T12:53:49.168Z,27.51
2023-05-09T12:56:17.613Z,29.34
2023-05-09T12:58:52.388Z,29.12
2023-05-09T13:01:21.300Z,29.80
2023-05-09T13:04:07.731Z,30.41
2023-05-09T13:06:36.469Z,32.51
2023-05-09T13:09:06.602Z,32.02
2023-05-09T13:11:34.570Z,31.19
2023-05-09T13:14:03.556Z,33.65
2023-05-09T13:16:31.518Z,31.29
2023-05-09T13:18:59.427Z,31.44
2023-05-09T13:21:27.637Z,31.99
2023-05-09T13:23:55.689Z,31.29
2023-05-09T13:26:23.502Z,32.07
2023-05-09T13:28:51.828Z,31.33
2023-05-09T13:31:23.234Z,32.28
2023-05-09T13:33:52.285Z,32.70
2023-05-09T13:36:20.888Z,31.37
2023-05-09T13:38:48.664Z,31.45
2023-05-09T13:41:20.957Z,31.48
2023-05-09T13:43:48.855Z,31.18
2023-05-09T13:46:17.219Z,32.26
2023-05-09T13:48:47.943Z,32.26
2023-05-09T13:51:15.716Z,33.46
2023-05-09T13:53:44.370Z,34.00
2023-05-09T13:56:12.318Z,33.83
2023-05-09T13:58:40.033Z,34.56
2023-05-09T14:01:08.246Z,32.58
2023-05-09T14:03:39.454Z,33.74
2023-05-09T14:06:09.428Z,34.39
2023-05-09T14:08:37.674Z,33.32
2023-05-09T14:11:06.015Z,32.93
2023-05-09T14:13:35.526Z,34.38
2023-05-09T14:16:05.692Z,33.18
2023-05-09T14:18:53.869Z,32.56
2023-05-09T14:21:21.678Z,35.22
2023-05-09T14:23:49.904Z,32.28
2023-05-09T14:26:18.114Z,34.22
2023-05-09T14:28:46.252Z,33.81
2023-05-09T14:31:14.318Z,33.04
2023-05-09T14:33:42.490Z,30.64
2023-05-09T14:36:12.146Z,31.16
2023-05-09T14:38:40.830Z,36.58
2023-05-09T14:41:15.766Z,33.94
2023-05-09T14:43:43.571Z,32.96
2023-05-09T14:46:11.886Z,30.97
2023-05-09T14:48:39.562Z,33.07
2023-05-09T14:51:07.415Z,33.63
2023-05-09T14:53:40.040Z,32.14
2023-05-09T14:56:11.665Z,33.08
2023-05-09T14:58:39.848Z,32.96
2023-05-09T15:01:07.696Z,32.50
2023-05-09T15:03:36.989Z,35.78
2023-05-09T15:06:05.828Z,35.49
2023-05-09T15:08:35.289Z,34.12
2023-05-09T15:11:03.067Z,34.48
2023-05-09T15:13:31.574Z,32.66
2023-05-09T15:16:00.114Z,32.54
2023-05-09T15:18:28.888Z,33.71
2023-05-09T15:20:57.136Z,33.51
2023-05-09T15:23:25.745Z,35.30
2023-05-09T15:25:53.535Z,34.28
2023-05-09T15:28:21.700Z,35.10
2023-05-09T15:30:49.558Z,34.30
2023-05-09T15:33:17.887Z,35.24
2023-05-09T15:35:46.102Z,34.31
2023-05-09T15:38:14.637Z,35.05
2023-05-09T15:40:42.450Z,33.82
2023-05-09T15:43:11.123Z,33.64
2023-05-09T15:45:44.065Z,34.09
2023-05-09T15:48:14.190Z,33.96
2023-05-09T15:50:42.301Z,35.76
2023-05-09T15:53:10.104Z,36.64
2023-05-09T15:55:38.430Z,36.24
2023-05-09T15:58:06.331Z,36.62
2023-05-09T16:00:34.698Z,36.24
2023-05-09T16:03:02.905Z,36.78
2023-05-09T16:05:30.813Z,36.77
2023-05-09T16:07:59.758Z,35.77
2023-05-09T16:10:28.125Z,35.46
2023-05-09T16:12:55.997Z,36.00
2023-05-09T16:15:23.965Z,36.19
2023-05-09T16:17:52.214Z,37.51
2023-05-09T16:20:20.566Z,38.33
2023-05-09T16:22:48.541Z,38.50
2023-05-09T16:25:16.945Z,36.61
2023-05-09T16:27:44.856Z,37.10
2023-05-09T16:30:13.402Z,37.15
2023-05-09T16:32:46.111Z,36.83
2023-05-09T16:35:14.196Z,38.18
2023-05-09T16:37:44.680Z,37.99
2023-05-09T16:40:18.768Z,37.62
2023-05-09T16:43:07.657Z,38.05
2023-05-09T16:45:35.429Z,38.04
2023-05-09T16:48:03.310Z,38.99
2023-05-09T16:50:31.715Z,38.95
2023-05-09T16:53:00.101Z,38.96
2023-05-09T16:55:28.261Z,39.53
2023-05-09T16:57:56.483Z,39.84
2023-05-09T17:00:24.413Z,40.39
2023-05-09T17:03:14.286Z,39.36
2023-05-09T17:05:54.299Z,40.04
2023-05-09T17:08:22.993Z,39.83
2023-05-09T17:10:50.775Z,40.08
2023-05-09T17:13:22.910Z,40.72
2023-05-09T17:15:53.042Z,42.15
2023-05-09T17:18:35.951Z,40.99
2023-05-09T17:23:54.744Z,42.45
2023-05-09T17:26:59.114Z,41.66
2023-05-09T17:29:30.803Z,42.57
2023-05-09T17:32:05.867Z,42.21
2023-05-09T17:34:36.500Z,43.75
2023-05-09T17:37:14.013Z,42.23
2023-05-09T17:39:46.206Z,41.62
2023-05-09T17:42:17.858Z,42.79
2023-05-09T17:44:47.690Z,42.43
2023-05-09T17:47:16.134Z,41.35
2023-05-09T17:49:44.359Z,42.70
2023-05-09T17:52:12.245Z,43.58
2023-05-09T17:54:40.604Z,41.96
2023-05-09T17:57:08.444Z,42.35
2023-05-09T17:59:39.290Z,42.58
2023-05-09T18:02:07.997Z,42.52
2023-05-09T18:04:36.391Z,43.35
2023-05-09T18:07:04.402Z,44.65
2023-05-09T18:09:33.361Z,43.42
2023-05-09T18:12:03.770Z,43.57
2023-05-09T18:14:31.610Z,46.23
2023-05-09T18:16:59.363Z,43.77
2023-05-09T18:19:27.451Z,45.43
2023-05-09T18:21:55.237Z,44.10
2023-05-09T18:24:29.717Z,43.31
2023-05-09T18:26:58.431Z,44.01
2023-05-09T18:29:26.207Z,47.36
2023-05-09T18:31:56.934Z,45.08
2023-05-09T18:34:26.283Z,44.63
2023-05-09T18:36:54.148Z,46.41
2023-05-09T18:39:23.121Z,44.98
2023-05-09T18:41:51.304Z,45.87
2023-05-09T18:44:19.128Z,44.39
2023-05-09T18:46:47.046Z,44.61
2023-05-09T18:49:15.735Z,44.64
2023-05-09T18:51:43.477Z,45.52
2023-05-09T18:54:11.323Z,47.07
2023-05-09T18:56:41.942Z,44.83
2023-05-09T18:59:12.221Z,46.68
2023-05-09T19:01:43.638Z,48.00
2023-05-09T19:04:12.267Z,46.76
2023-05-09T19:06:40.452Z,47.55
2023-05-09T19:09:08.309Z,46.60
2023-05-09T19:11:36.142Z,47.09
2023-05-09T19:14:05.227Z,46.02
2023-05-09T19:16:33.105Z,45.31
2023-05-09T19:19:01.006Z,45.33
2023-05-09T19:21:30.066Z,46.03
2023-05-09T19:23:57.798Z,44.44
2023-05-09T19:26:25.579Z,44.59
2023-05-09T19:28:54.258Z,43.89
2023-05-09T19:31:21.998Z,45.35
2023-05-09T19:33:49.885Z,44.47
2023-05-09T19:36:18.969Z,45.84
2023-05-09T19:38:48.880Z,45.12
2023-05-09T19:41:18.701Z,45.94
2023-05-09T19:43:49.590Z,45.73
2023-05-09T19:46:19.371Z,47.06
2023-05-09T19:48:48.124Z,45.90
2023-05-09T19:51:16.089Z,46.81
2023-05-09T19:53:43.878Z,47.21
2023-05-09T19:56:12.856Z,47.72
2023-05-09T19:58:42.315Z,48.34
2023-05-09T20:01:11.075Z,48.76
2023-05-09T20:03:42.553Z,48.81
2023-05-09T20:06:10.422Z,49.24
2023-05-09T20:08:38.063Z,50.58
2023-05-09T20:11:06.113Z,49.28
2023-05-09T20:13:33.793Z,50.28
2023-05-09T20:16:02.957Z,49.70
2023-05-09T20:18:33.632Z,51.90
2023-05-09T20:21:01.734Z,50.65
2023-05-09T20:23:29.830Z,49.60
2023-05-09T20:25:59.169Z,50.22
2023-05-09T20:28:27.149Z,50.99
2023-05-09T20:30:54.759Z,50.11
2023-05-09T20:33:22.941Z,50.36
2023-05-09T20:35:50.564Z,51.08
2023-05-09T20:38:18.289Z,52.64
2023-05-09T20:40:46.401Z,51.32
2023-05-09T20:43:14.086Z,52.36
2023-05-09T20:45:41.859Z,51.24
2023-05-09T20:48:10.651Z,52.81
2023-05-09T20:50:38.408Z,52.04
2023-05-09T20:53:06.122Z,53.65
2023-05-09T20:55:34.082Z,53.23
2023-05-09T20:58:01.765Z,52.15
2023-05-09T21:00:29.482Z,52.11
2023-05-09T21:02:58.770Z,52.77
2023-05-09T21:05:27.688Z,53.93
2023-05-09T21:07:55.434Z,53.95
2023-05-09T21:10:23.446Z,55.17
2023-05-09T21:12:51.236Z,53.77
2023-05-09T21:15:19.002Z,56.22
2023-05-09T21:17:47.059Z,57.19
2023-05-09T21:20:15.144Z,55.86
2023-05-09T21:22:43.332Z,57.16
2023-05-09T21:25:11.393Z,57.27
2023-05-09T21:27:38.981Z,55.17
2023-05-09T21:30:07.166Z,55.79
2023-05-09T21:32:35.267Z,56.40
2023-05-09T21:35:03.032Z,56.47
2023-05-09T21:37:30.890Z,56.33
2023-05-09T21:39:59.457Z,56.04
2023-05-09T21:42:27.142Z,57.25
2023-05-09T21:44:54.907Z,56.55
2023-05-09T21:47:23.137Z,57.46
2023-05-09T21:49:50.928Z,58.83
2023-05-09T21:52:18.642Z,57.44
2023-05-09T21:54:46.649Z,56.99
2023-05-09T21:57:14.395Z,56.31
2023-05-09T21:59:42.119Z,57.45
2023-05-09T22:02:10.162Z,60.26
2023-05-09T22:04:38.314Z,58.73
2023-05-09T22:07:06.491Z,58.27
2023-05-09T22:09:34.301Z,60.00
2023-05-09T22:12:02.545Z,60.59
2023-05-09T22:14:30.217Z,61.47
2023-05-09T22:16:57.892Z,60.27
2023-05-09T22:19:26.011Z,61.36
2023-05-09T22:21:53.838Z,61.47
2023-05-09T22:24:21.564Z,60.10
2023-05-09T22:26:49.588Z,60.88
2023-05-09T22:29:17.863Z,59.42
2023-05-09T22:31:45.902Z,59.64
2023-05-09T22:34:14.057Z,59.38
2023-05-09T22:36:42.299Z,58.09
2023-05-09T22:39:09.965Z,58.53
2023-05-09T22:41:38.110Z,59.07
2023-05-09T22:44:05.978Z,58.48
2023-05-09T22:46:33.849Z,59.12
2023-05-09T22:49:02.007Z,59.46
2023-05-09T22:51:29.757Z,58.94
2023-05-09T22:53:57.562Z,58.32
2023-05-09T22:56:26.640Z,57.44
2023-05-09T22:58:54.406Z,58.88
2023-05-09T23:01:22.274Z,59.44
2023-05-09T23:03:51.051Z,59.82
2023-05-09T23:06:18.841Z,60.71
2023-05-09T23:08:46.769Z,61.74
2023-05-09T23:11:17.317Z,60.11
2023-05-09T23:13:45.154Z,60.99
2023-05-09T23:16:12.959Z,61.71
2023-05-09T23:18:41.242Z,62.18
2023-05-09T23:21:09.031Z,62.49
2023-05-09T23:23:36.971Z,61.30
2023-05-09T23:26:05.313Z,63.15
2023-05-09T23:28:32.991Z,65.53
2023-05-09T23:31:00.765Z,64.35
2023-05-09T23:33:29.015Z,65.00
2023-05-09T23:35:57.539Z,66.18
2023-05-09T23:38:25.329Z,66.00
2023-05-09T23:40:54.114Z,66.25
2023-05-09T23:43:21.819Z,64.87
2023-05-09T23:45:49.600Z,64.63
2023-05-09T23:48:17.642Z,65.79
2023-05-09T23:50:45.553Z,68.48
2023-05-09T23:53:13.369Z,69.35
2023-05-09T23:55:41.518Z,70.78
2023-05-09T23:58:09.271Z,72.24
